Nearby METAR Reports

 

KDAA - Fort Belvoir/Dav, Virginia, USA
Distance from station: SE 9mi, 15km
Updated: Fri, 27-Jan-2023 3:55am EST
Clear
Clear
 Wind from calm
Wind: Calm
Temperature: 27°F , -3°C
Dew Point: 25°F , -4°C
Humidity: 93%
Barometer: 30.05 inHg , 1017.6 hPa
Clouds: Clear
Visibility: 10 miles , 16 km
2023/01/27 08:55 KDAA 270855Z AUTO 00000KT 10SM CLR M03/M04 A3005 RMK AO2 SLP179 T10271043 50007 $
KIAD - Wash Dc/Dulles, Virginia, USA
Distance from station: NW 12mi, 19km
Updated: Fri, 27-Jan-2023 3:52am EST
Partly cloudy
Partly cloudy
 Wind from calm
Wind: Calm
Temperature: 28°F , -2°C
Dew Point: 21°F , -6°C
Humidity: 74%
Barometer: 30.06 inHg , 1017.9 hPa
Clouds: Partly cloudy
Visibility: 10 miles , 16 km
Cloud details: Partly cloudy 6500 ft
2023/01/27 08:52 KIAD 270852Z 00000KT 10SM SCT065 M02/M06 A3006 RMK AO2 SLP179 T10171056 50007
 
KHEF - Manassas Muni, Virginia, USA
Distance from station: WSW 14mi, 22km
Updated: Fri, 27-Jan-2023 3:56am EST
Clear
Clear
 Wind from SSW
Wind: SSW 5 mph , 7 km/h
Temperature: 30°F , -1°C
Wind Chill: 25°F , -4°C
Dew Point: 21°F , -6°C
Humidity: 69%
Barometer: 30.07 inHg , 1018.3 hPa
Clouds: Clear
Visibility: 10 miles , 16 km
2023/01/27 08:56 KHEF 270856Z AUTO 20004KT 10SM CLR M01/M06 A3007 RMK AO2 SLP187 T10111056 50004 FZRANO
KDCA - Washington/Natl, Washington D.c., USA
Distance from station: ENE 14mi, 23km
Updated: Fri, 27-Jan-2023 3:52am EST
Partly cloudy
Partly cloudy
 Wind from WNW
Wind: WNW 3 mph , 6 km/h
Temperature: 37°F , 3°C
Dew Point: 21°F , -6°C
Humidity: 52%
Barometer: 30.07 inHg , 1018.3 hPa
Clouds: Partly cloudy
Visibility: 10 miles , 16 km
Cloud details: Partly cloudy 25000 ft
2023/01/27 08:52 KDCA 270852Z 29003KT 10SM SCT250 03/M06 A3007 RMK AO2 SLP183 T00281056 51010 $
 
KNYG - Quantico Mcaf, Virginia, USA
Distance from station: S 21mi, 34km
Updated: Fri, 27-Jan-2023 3:56am EST
Clear
Clear
 Wind from W
Wind: W 3 mph , 6 km/h
Temperature: 32°F , 0°C
Barometer: 30.08 inHg , 1018.6 hPa
Clouds: Clear
Visibility: 10 miles , 16 km
2023/01/27 08:56 KNYG 270856Z AUTO 27003KT 10SM CLR 00/ A3008 RMK AO2 SLP186 T0000 50005 $
KADW - Andrews Afb, Maryland, USA
Distance from station: E 23mi, 37km
Updated: Fri, 27-Jan-2023 3:55am EST
Clear
Clear
 Wind from WNW
Wind: WNW 8 mph , 13 km/h
Temperature: 36°F , 2°C
Wind Chill: 30°F , -1°C
Dew Point: 21°F , -6°C
Humidity: 56%
Barometer: 30.03 inHg , 1016.9 hPa
Clouds: Clear
Visibility: 10 miles , 16 km
2023/01/27 08:55 KADW 270855Z AUTO 30007KT 10SM CLR 02/M06 A3003 RMK AO2 SLP178 T00151059 50006 $
 
KJYO - Leesburg/Godfrey, Virginia, USA
Distance from station: NW 23mi, 37km
Updated: Fri, 27-Jan-2023 3:55am EST
Overcast
Overcast
 Wind from calm
Wind: Calm
Temperature: 34°F , 1°C
Dew Point: 28°F , -2°C
Humidity: 81%
Barometer: 30.07 inHg , 1018.3 hPa
Clouds: Overcast
Visibility: 10 miles , 16 km
Cloud details: Partly cloudy 5000 ft
Overcast 6000 ft
2023/01/27 08:55 KJYO 270855Z AUTO 00000KT 10SM SCT050 OVC060 01/M02 A3007 RMK AO2
KCGS - College Park, Maryland, USA
Distance from station: ENE 24mi, 38km
Updated: Fri, 27-Jan-2023 3:45am EST
Clear
Clear
 Wind from calm
Wind: Calm
Temperature: 37°F , 3°C
Dew Point: 21°F , -6°C
Humidity: 52%
Barometer: 30.07 inHg , 1018.3 hPa
Clouds: Clear
Visibility: 10 miles , 16 km
2023/01/27 08:45 KCGS 270845Z AUTO 00000KT 10SM CLR 03/M06 A3007 RMK AO2 T00271059
 
KGAI - Gaithersburg, Maryland, USA
Distance from station: NNE 26mi, 41km
Updated: Fri, 27-Jan-2023 3:56am EST
Overcast
Overcast
 Wind from WNW
Wind: WNW 5 mph , 7 km/h
Temperature: 32°F , 0°C
Wind Chill: 27°F , -3°C
Dew Point: 23°F , -5°C
Humidity: 69%
Barometer: 30.05 inHg , 1017.6 hPa
Clouds: Overcast
Visibility: 10 miles , 16 km
Cloud details: Overcast 5500 ft
2023/01/27 08:56 KGAI 270856Z AUTO 29004KT 10SM OVC055 00/M05 A3005 RMK AO2 SLP195 T00001050 50008 FZRANO
KHWY - Warrenton, Virginia, USA
Distance from station: SW 28mi, 44km
Updated: Fri, 27-Jan-2023 3:55am EST
Partly cloudy
Partly cloudy
 Wind from calm
Wind: Calm
Temperature: 28°F , -2°C
Dew Point: 21°F , -6°C
Humidity: 74%
Barometer: 30.06 inHg , 1017.9 hPa
Clouds: Partly cloudy
Visibility: 10 miles , 16 km
Cloud details: Partly cloudy 5500 ft
2023/01/27 08:55 KHWY 270855Z AUTO 00000KT 10SM SCT055 M02/M06 A3006 RMK AO2 T10251064
 
KRMN - Stafford Regnl, Virginia, USA
Distance from station: SSW 29mi, 47km
Updated: Fri, 27-Jan-2023 3:55am EST
Clear
Clear
 Wind from calm
Wind: Calm
Temperature: 36°F , 2°C
Dew Point: 25°F , -4°C
Humidity: 65%
Barometer: 30.07 inHg , 1018.3 hPa
Clouds: Clear
Visibility: 10 miles , 16 km
2023/01/27 08:55 KRMN 270855Z AUTO 00000KT 10SM CLR 02/M04 A3007 RMK AO2 T00161041
KFME - Fort Meade, Maryland, USA
Distance from station: NE 34mi, 55km
Updated: Fri, 27-Jan-2023 3:49am EST
Clear
Clear
 Wind from W
Wind: W 8 mph , 13 km/h
Temperature: 32°F , 0°C
Wind Chill: 25°F , -4°C
Dew Point: 21°F , -6°C
Humidity: 64%
Barometer: 30.08 inHg , 1018.6 hPa
Clouds: Clear
Visibility: 10 miles , 16 km
2023/01/27 08:49 KFME 270849Z AUTO 27007KT 10SM CLR 00/M06 A3008 RMK AO1
 
KCJR - Culpeper, Virginia, USA
Distance from station: WSW 36mi, 58km
Updated: Fri, 27-Jan-2023 3:55am EST
Overcast
Overcast
 Wind from calm
Wind: Calm
Temperature: 34°F , 1°C
Dew Point: 19°F , -7°C
Humidity: 56%
Barometer: 30.07 inHg , 1018.3 hPa
Clouds: Overcast
Visibility: 10 miles , 16 km
Cloud details: Overcast 7000 ft
2023/01/27 08:55 KCJR 270855Z AUTO 00000KT 10SM OVC070 01/M07 A3007 RMK AO2 T00141067
KEZF - Fredericksb/Shan, Virginia, USA
Distance from station: SSW 38mi, 62km
Updated: Fri, 27-Jan-2023 3:55am EST
Clear
Clear
 Wind from calm
Wind: Calm
Temperature: 32°F , 0°C
Dew Point: 21°F , -6°C
Humidity: 64%
Barometer: 30.05 inHg , 1017.6 hPa
Clouds: Clear
Visibility: 10 miles , 16 km
2023/01/27 08:55 KEZF 270855Z AUTO 00000KT 10SM CLR 00/M06 A3005 RMK AO2 T10051059
 
KBWI - Balto/Wash Intl, Maryland, USA
Distance from station: NE 41mi, 66km
Updated: Fri, 27-Jan-2023 3:54am EST
Few Clouds
Few Clouds
 Wind from W
Wind: W 7 mph , 11 km/h
Temperature: 36°F , 2°C
Wind Chill: 30°F , -1°C
Dew Point: 21°F , -6°C
Humidity: 56%
Barometer: 30.05 inHg , 1017.6 hPa
Clouds: Few Clouds
Visibility: 10 miles , 16 km
Cloud details: Few Clouds 8500 ft
2023/01/27 08:54 KBWI 270854Z 27006KT 10SM FEW085 02/M06 A3005 RMK AO2 SLP175 T00171061 51013
KFDK - Frederick, Maryland, USA
Distance from station: N 42mi, 68km
Updated: Fri, 27-Jan-2023 3:55am EST
Mostly cloudy
Mostly cloudy
 Wind from W
Wind: W 7 mph , 11 km/h
Temperature: 34°F , 1°C
Wind Chill: 28°F , -2°C
Dew Point: 25°F , -4°C
Humidity: 70%
Barometer: 30.06 inHg , 1017.9 hPa
Clouds: Mostly cloudy
Visibility: 10 miles , 16 km
Cloud details: Partly cloudy 4600 ft
Mostly cloudy 5500 ft
2023/01/27 08:55 KFDK 270855Z AUTO 26006KT 10SM SCT046 BKN055 01/M04 A3006 RMK AO2
 
KNAK - Annapolis/Naval, Maryland, USA
Distance from station: ENE 45mi, 73km
Updated: Fri, 27-Jan-2023 3:54am EST
Clear
Clear
 Wind from W
Wind: W 7 mph , 11 km/h
Temperature: 37°F , 3°C
Wind Chill: 32°F , 0°C
Dew Point: 21°F , -6°C
Humidity: 52%
Barometer: 30.06 inHg , 1017.9 hPa
Clouds: Clear
Visibility: 10 miles , 16 km
2023/01/27 08:54 KNAK 270854Z AUTO 27006KT 10SM CLR 03/M06 A3006 RMK AO2 SLP182 T00331056 50012